Time;durP1;ratioP1;P1;durP2;ratioP2;P2;SDS_P1;SDS_P2;PMS_P1;PMS_P2;Temp;Humidity;BMP_temperature;BMP_pressure;BME280_temperature;BME280_humidity;BME280_pressure;Samples;Min_cycle;Max_cycle;Signal;HPM_P1;HPM_P2
2021/09/03 00:01:15;;;;;;;10.67;6.77;;;;;;;14.96;68.34;101429.38;5156641;57;21542;-86
2021/09/03 00:06:21;;;;;;;11.77;6.00;;;;;;;14.87;68.07;101427.44;5161810;57;21519;-88
2021/09/03 00:11:27;;;;;;;6.97;5.80;;;;;;;14.65;67.79;101423.87;5161721;57;21169;-88
2021/09/03 00:16:32;;;;;;;8.47;4.23;;;;;;;14.62;68.68;101420.59;5161812;57;22140;-88
2021/09/03 00:21:38;;;;;;;11.73;4.37;;;;;;;14.69;69.12;101409.80;5161775;57;21203;-86
2021/09/03 00:26:44;;;;;;;8.13;4.73;;;;;;;14.75;69.08;101403.99;5162041;57;21101;-88
2021/09/03 00:31:50;;;;;;;8.47;4.27;;;;;;;14.75;68.94;101398.19;5161839;57;21208;-89
2021/09/03 00:36:57;;;;;;;8.77;3.50;;;;;;;14.72;68.75;101395.76;5161469;57;21180;-88
2021/09/03 00:42:11;;;;;;;7.10;5.07;;;;;;;14.67;68.50;101389.95;5161640;57;21211;-87
2021/09/03 00:47:16;;;;;;;7.40;4.77;;;;;;;14.61;68.63;101389.62;5161053;57;21115;-86
2021/09/03 00:52:23;;;;;;;12.90;5.03;;;;;;;14.53;68.57;101384.05;5161564;57;21188;-88
2021/09/03 00:57:29;;;;;;;9.47;5.17;;;;;;;14.50;68.59;101371.02;5159774;57;21193;-88
2021/09/03 01:02:36;;;;;;;3.90;3.00;;;;;;;14.49;68.77;101358.19;5134099;58;21175;-86
2021/09/03 01:07:42;;;;;;;5.03;3.70;;;;;;;14.35;68.50;101349.10;5133892;58;21124;-89
2021/09/03 01:12:49;;;;;;;10.23;3.33;;;;;;;14.24;68.90;101349.94;5133541;58;21166;-85
2021/09/03 01:17:55;;;;;;;6.33;3.63;;;;;;;14.20;69.14;101343.67;5133615;58;21201;-87
2021/09/03 01:23:00;;;;;;;4.43;3.30;;;;;;;14.14;69.28;101342.34;5133835;58;21168;-87
2021/09/03 01:28:06;;;;;;;15.47;10.37;;;;;;;14.08;69.25;101334.34;5133480;58;21120;-88
2021/09/03 01:33:12;;;;;;;13.83;8.53;;;;;;;14.02;69.29;101328.20;5133623;58;21247;-87
2021/09/03 01:38:18;;;;;;;7.70;5.97;;;;;;;13.99;69.21;101321.79;5132504;58;21233;-88
2021/09/03 01:43:24;;;;;;;5.23;4.07;;;;;;;13.73;68.80;101330.97;5124342;58;21214;-86
2021/09/03 01:48:29;;;;;;;4.87;3.83;;;;;;;13.19;69.57;101323.60;5124232;57;21270;-87
2021/09/03 01:53:35;;;;;;;4.20;3.63;;;;;;;12.84;70.52;101320.05;5124048;58;21222;-86
2021/09/03 01:58:41;;;;;;;10.43;4.03;;;;;;;12.79;71.58;101322.22;5125323;57;21172;-86
2021/09/03 02:03:47;;;;;;;6.83;3.00;;;;;;;12.79;71.79;101314.25;5128629;57;21194;-86
2021/09/03 02:08:52;;;;;;;9.90;6.77;;;;;;;12.80;71.86;101307.98;5129092;57;21524;-87
2021/09/03 02:13:58;;;;;;;9.63;5.73;;;;;;;12.66;71.76;101312.98;5128207;57;21209;-87
2021/09/03 02:19:05;;;;;;;12.70;6.00;;;;;;;12.50;72.13;101305.30;5129299;57;21241;-87
2021/09/03 02:24:11;;;;;;;6.47;5.10;;;;;;;12.62;73.03;101300.42;5129145;57;21761;-87
2021/09/03 02:29:17;;;;;;;12.50;7.07;;;;;;;12.78;73.23;101298.80;5129446;57;21190;-86
2021/09/03 02:34:25;;;;;;;12.37;7.00;;;;;;;12.92;73.34;101294.63;5128877;57;21177;-86
2021/09/03 02:39:31;;;;;;;14.40;9.53;;;;;;;12.95;72.62;101286.45;5128350;57;21193;-87
2021/09/03 02:44:39;;;;;;;12.57;7.90;;;;;;;12.95;72.63;101279.81;5128374;57;21278;-87
2021/09/03 02:49:44;;;;;;;5.90;4.00;;;;;;;12.97;72.76;101271.25;5129998;57;21141;-86
2021/09/03 02:54:51;;;;;;;12.30;4.80;;;;;;;12.81;72.40;101269.86;5137965;57;21584;-86
2021/09/03 02:59:58;;;;;;;14.57;8.27;;;;;;;12.78;73.09;101254.16;5091783;57;21579;-86
2021/09/03 03:05:05;;;;;;;19.00;5.23;;;;;;;12.85;73.45;101252.72;5054947;58;21217;-88
2021/09/03 03:10:11;;;;;;;68.67;33.20;;;;;;;;;;5055046;58;21556;-88
2021/09/03 03:15:17;;;;;;;188.93;97.60;;;;;;;12.95;73.14;101237.33;5056880;58;21197;-85
2021/09/03 03:20:23;;;;;;;196.03;114.27;;;;;;;12.87;72.81;101232.22;5020264;58;21182;-84
2021/09/03 03:25:30;;;;;;;47.53;26.30;;;;;;;12.73;72.64;101235.91;5019969;58;21278;-88
2021/09/03 03:30:35;;;;;;;22.03;15.27;;;;;;;12.61;72.77;101224.89;5057488;58;21502;-86
2021/09/03 03:35:42;;;;;;;20.13;15.07;;;;;;;12.43;73.18;101217.82;5057939;58;22549;-87
2021/09/03 03:40:48;;;;;;;10.33;7.73;;;;;;;12.37;73.26;101208.16;5057509;58;21510;-88
2021/09/03 03:46:13;;;;;;;9.53;4.90;;;;;;;12.35;73.60;101205.63;5057645;58;21204;-88
2021/09/03 03:51:20;;;;;;;5.93;4.40;;;;;;;12.32;73.90;101197.88;5061615;57;21154;-87
2021/09/03 03:56:25;;;;;;;6.70;3.50;;;;;;;12.20;74.04;101206.75;5069931;58;21197;-86
2021/09/03 04:01:31;;;;;;;3.57;3.27;;;;;;;12.01;74.31;101204.59;5139060;57;21207;-89
2021/09/03 04:06:37;;;;;;;7.73;4.43;;;;;;;11.91;75.13;101200.92;5149512;57;21214;-86
2021/09/03 04:11:46;;;;;;;5.63;4.00;;;;;;;11.76;75.86;101192.75;5149056;57;21143;-87
2021/09/03 04:16:51;;;;;;;5.87;4.27;;;;;;;11.64;76.59;101191.29;5149092;57;21198;-88
2021/09/03 04:21:57;;;;;;;10.37;4.17;;;;;;;11.61;76.83;101182.23;5149254;57;21668;-88
2021/09/03 04:27:03;;;;;;;11.93;7.07;;;;;;;11.59;77.09;101178.87;5146797;57;21207;-87
2021/09/03 04:32:09;;;;;;;12.10;5.17;;;;;;;11.55;77.29;101174.73;5146782;57;21275;-88
2021/09/03 04:37:15;;;;;;;14.00;5.57;;;;;;;11.55;77.27;101170.77;5147043;57;21214;-87
2021/09/03 04:42:21;;;;;;;10.30;4.70;;;;;;;11.53;77.61;101167.38;5147315;57;21174;-88
2021/09/03 04:47:27;;;;;;;10.27;5.40;;;;;;;11.54;78.17;101157.14;5147057;57;21238;-87
2021/09/03 04:52:33;;;;;;;10.60;5.97;;;;;;;11.60;78.88;101158.05;5127747;57;21196;-85
2021/09/03 04:57:44;;;;;;;12.67;5.73;;;;;;;11.64;79.60;101155.52;5072364;57;21195;-85
2021/09/03 05:02:51;;;;;;;14.93;6.20;;;;;;;11.74;80.40;101151.75;5079285;57;21519;-85
2021/09/03 05:07:56;;;;;;;20.97;9.23;;;;;;;11.81;82.03;101156.14;5101714;57;21275;-85
2021/09/03 05:13:02;;;;;;;24.87;9.93;;;;;;;11.82;81.95;101150.73;5129353;57;21213;-85
2021/09/03 05:18:08;;;;;;;30.50;10.40;;;;;;;11.84;82.92;101144.00;5060754;57;21205;-88
2021/09/03 05:23:14;;;;;;;37.40;11.37;;;;;;;11.84;83.60;101144.00;5046707;58;21126;-87
2021/09/03 05:28:20;;;;;;;25.30;9.20;;;;;;;11.88;84.14;101147.65;5045522;58;21545;-87
2021/09/03 05:33:26;;;;;;;24.53;9.30;;;;;;;11.87;86.94;101143.78;5045898;58;21138;-88
2021/09/03 05:38:32;;;;;;;22.67;10.53;;;;;;;11.83;86.65;101133.88;5046556;58;21475;-85
2021/09/03 05:43:37;;;;;;;15.60;7.97;;;;;;;11.85;87.36;101127.14;5046275;58;21708;-87
2021/09/03 05:48:44;;;;;;;20.53;9.53;;;;;;;11.97;88.94;101131.05;5046434;58;21209;-87
2021/09/03 05:53:49;;;;;;;20.33;8.87;;;;;;;12.00;88.92;101115.41;5059574;57;21246;-85
2021/09/03 05:58:55;;;;;;;22.83;10.80;;;;;;;12.12;89.73;101117.63;5097715;57;21226;-84
2021/09/03 06:04:01;;;;;;;19.27;8.47;;;;;;;12.20;90.21;101127.19;5148877;57;21494;-87
2021/09/03 06:09:07;;;;;;;16.07;8.83;;;;;;;12.26;90.64;101120.93;5149298;57;21301;-87
2021/09/03 06:14:13;;;;;;;14.97;8.73;;;;;;;12.37;91.38;101121.47;5148692;57;21182;-86
2021/09/03 06:19:19;;;;;;;14.80;9.63;;;;;;;12.48;92.14;101120.17;5148553;57;21637;-85
2021/09/03 06:24:29;;;;;;;16.83;9.03;;;;;;;12.66;91.75;101116.12;5148363;57;22467;-84
2021/09/03 06:29:40;;;;;;;9.87;6.90;;;;;;;12.85;92.34;101121.31;5148144;57;21195;-85
2021/09/03 06:34:59;;;;;;;13.80;9.27;;;;;;;13.06;94.06;101120.98;5148301;57;21214;-87
2021/09/03 06:40:06;;;;;;;12.23;7.00;;;;;;;13.28;92.36;101122.84;5147673;57;21664;-84
2021/09/03 06:45:12;;;;;;;17.70;9.23;;;;;;;13.47;93.32;101125.69;5148594;57;22343;-86
2021/09/03 06:50:18;;;;;;;15.87;10.10;;;;;;;13.57;92.90;101120.50;5148385;57;21221;-87
2021/09/03 06:55:24;;;;;;;13.80;9.37;;;;;;;13.72;93.02;101123.25;5138784;57;21198;-85
2021/09/03 07:00:30;;;;;;;20.60;12.87;;;;;;;13.96;92.74;101112.41;5143914;57;21551;-86
2021/09/03 07:05:36;;;;;;;24.80;12.53;;;;;;;14.22;92.51;101112.42;5148494;57;21114;-88
2021/09/03 07:10:42;;;;;;;25.87;15.27;;;;;;;14.50;92.50;101102.17;5148487;57;22147;-84
2021/09/03 07:15:47;;;;;;;22.20;14.53;;;;;;;14.67;91.61;101101.06;5091663;57;21157;-84
2021/09/03 07:20:53;;;;;;;25.93;14.63;;;;;;;14.64;91.37;101096.03;4962535;60;21196;-85
2021/09/03 07:26:03;;;;;;;18.37;10.77;;;;;;;14.64;90.98;101090.70;4885282;60;21640;-85
2021/09/03 07:31:09;;;;;;;26.97;12.07;;;;;;;14.68;91.51;101091.27;4954579;60;21580;-85
2021/09/03 07:36:15;;;;;;;28.50;14.37;;;;;;;14.67;91.85;101088.24;4874463;60;22707;-84
2021/09/03 07:41:23;;;;;;;21.97;11.17;;;;;;;14.73;91.21;101091.23;4951622;60;21522;-85
2021/09/03 07:46:28;;;;;;;24.70;10.17;;;;;;;14.84;91.36;101096.96;4874502;60;21226;-84
2021/09/03 07:51:35;;;;;;;20.03;9.83;;;;;;;14.92;90.77;101087.84;4951233;60;21208;-85
2021/09/03 07:56:41;;;;;;;20.47;11.20;;;;;;;15.04;89.74;101081.92;4891664;60;21511;-84
2021/09/03 08:01:46;;;;;;;23.43;9.57;;;;;;;15.13;88.50;101074.45;4968407;59;21185;-84
2021/09/03 08:06:52;;;;;;;19.33;8.30;;;;;;;15.18;87.42;101065.56;5067961;58;21686;-85
2021/09/03 08:11:58;;;;;;;12.03;7.63;;;;;;;15.23;86.76;101068.68;5068305;58;21297;-85
2021/09/03 08:17:05;;;;;;;17.87;8.47;;;;;;;15.34;86.59;101068.56;5068115;58;21269;-85
2021/09/03 08:22:11;;;;;;;18.20;8.87;;;;;;;15.44;86.39;101062.75;4968325;59;21622;-85
2021/09/03 08:27:17;;;;;;;16.73;8.63;;;;;;;15.57;84.88;101052.38;4968660;59;21233;-84
2021/09/03 08:32:23;;;;;;;20.00;8.13;;;;;;;15.61;85.43;101057.28;4968606;59;21221;-85
2021/09/03 08:37:29;;;;;;;16.23;9.23;;;;;;;15.67;85.46;101054.07;4967122;59;22832;-85
2021/09/03 08:42:37;;;;;;;25.83;9.20;;;;;;;15.74;85.04;101051.19;4955637;58;21162;-85
2021/09/03 08:47:45;;;;;;;17.67;9.03;;;;;;;15.79;84.28;101049.44;4919262;59;21379;-86
2021/09/03 08:52:52;;;;;;;16.33;8.97;;;;;;;15.91;83.94;101044.31;4963724;59;21179;-85
2021/09/03 08:57:58;;;;;;;21.07;10.07;;;;;;;15.93;82.94;101017.50;5023373;58;21182;-85
2021/09/03 09:03:15;;;;;;;20.80;9.30;;;;;;;15.90;83.08;101015.11;4958806;58;21619;-85
2021/09/03 09:08:23;;;;;;;16.97;9.00;;;;;;;16.04;83.75;101022.70;4957831;59;21181;-87
2021/09/03 09:13:36;;;;;;;19.43;9.60;;;;;;;16.14;83.11;101006.19;4974255;59;21112;-85
2021/09/03 09:18:51;;;;;;;14.70;8.08;;;;;;;16.37;82.50;100994.17;4975974;59;21682;-86
2021/09/03 09:24:10;;;;;;;15.23;9.17;;;;;;;16.65;82.48;100992.42;4975651;59;21234;-85
2021/09/03 09:29:29;;;;;;;20.23;9.73;;;;;;;16.81;81.06;101001.98;4975630;59;21177;-84
2021/09/03 09:34:41;;;;;;;15.87;9.20;;;;;;;16.68;80.15;100995.30;4975566;59;21646;-83
2021/09/03 09:39:58;;;;;;;15.90;9.07;;;;;;;16.72;80.99;100979.34;4908672;60;22081;-84
2021/09/03 09:45:18;;;;;;;18.40;9.50;;;;;;;16.96;81.72;100978.81;4884904;60;21175;-85
2021/09/03 09:50:27;;;;;;;18.90;8.10;;;;;;;17.40;80.83;100963.76;4884583;60;21494;-86
2021/09/03 09:55:34;;;;;;;16.47;7.93;;;;;;;17.74;78.91;100962.08;4891933;60;21179;-85
2021/09/03 10:00:40;;;;;;;13.17;7.83;;;;;;;18.02;76.72;100957.47;4961728;59;21616;-85
2021/09/03 10:05:46;;;;;;;10.73;7.77;;;;;;;18.13;76.00;100949.67;5161028;57;22131;-85
2021/09/03 10:10:53;;;;;;;11.50;8.40;;;;;;;18.31;75.58;100941.09;5148707;56;21701;-86
2021/09/03 10:16:00;;;;;;;14.73;8.67;;;;;;;18.48;74.79;100940.19;5141632;56;21697;-85
2021/09/03 10:21:07;;;;;;;16.23;8.27;;;;;;;18.56;73.96;100937.52;5141446;56;21206;-85
2021/09/03 10:26:12;;;;;;;21.13;8.57;;;;;;;18.73;73.85;100929.09;5141936;56;21091;-86
2021/09/03 10:31:21;;;;;;;12.73;8.20;;;;;;;18.94;74.31;100925.99;5141534;56;21587;-85
2021/09/03 10:36:58;;;;;;;10.80;6.67;;;;;;;19.11;73.57;100920.14;5140649;56;21114;-85
2021/09/03 10:42:04;;;;;;;10.13;6.78;;;;;;;19.22;72.12;100915.33;5142188;56;21193;-86
2021/09/03 10:47:32;;;;;;;14.68;8.33;;;;;;;19.38;71.55;100908.30;5142173;56;21145;-85
2021/09/03 10:52:38;;;;;;;12.90;6.53;;;;;;;19.60;72.48;100898.27;5042848;57;21128;-85
2021/09/03 10:58:00;;;;;;;17.67;6.92;;;;;;;19.84;69.66;100894.23;5134475;56;21157;-86
2021/09/03 11:03:38;;;;;;;14.58;6.83;;;;;;;19.89;68.42;100895.05;5129731;56;21142;-87
2021/09/03 11:08:46;;;;;;;8.30;6.42;;;;;;;19.95;67.58;100895.22;5130724;56;21153;-86
2021/09/03 11:13:59;;;;;;;12.05;5.75;;;;;;;19.98;67.87;100896.23;5130310;56;21157;-87
2021/09/03 11:19:17;;;;;;;16.27;6.57;;;;;;;20.00;68.59;100883.47;5129839;56;21643;-86
2021/09/03 11:24:27;;;;;;;13.35;6.03;;;;;;;20.23;67.43;100886.75;5129254;57;21190;-85
2021/09/03 11:29:45;;;;;;;13.03;6.25;;;;;;;20.44;67.68;100883.53;5021142;58;21164;-86
2021/09/03 11:35:01;;;;;;;8.10;5.60;;;;;;;20.58;65.34;100880.11;4959522;59;21168;-86
2021/09/03 11:40:21;;;;;;;9.05;6.45;;;;;;;20.78;64.94;100869.77;5021924;58;21187;-86
2021/09/03 11:45:35;;;;;;;9.53;6.35;;;;;;;20.99;64.81;100872.14;4959810;59;21655;-85
2021/09/03 11:50:44;;;;;;;12.15;5.42;;;;;;;21.19;65.56;100859.58;5022759;58;21207;-86
2021/09/03 11:55:51;;;;;;;13.75;6.00;;;;;;;21.37;62.55;100865.53;5025017;58;21728;-86
2021/09/03 12:01:00;;;;;;;11.38;7.03;;;;;;;21.57;62.61;100859.11;5142114;56;21472;-87
2021/09/03 12:06:08;;;;;;;11.00;5.40;;;;;;;21.63;61.29;100859.23;5143080;56;21149;-87
2021/09/03 12:11:19;;;;;;;12.30;6.85;;;;;;;21.53;60.75;100867.25;5143270;56;21300;-85
2021/09/03 12:16:35;;;;;;;12.25;6.60;;;;;;;21.59;62.10;100864.65;5142748;56;21205;-86
2021/09/03 12:21:44;;;;;;;9.48;5.53;;;;;;;21.67;60.21;100857.86;5143355;56;21161;-85
2021/09/03 12:26:57;;;;;;;15.15;6.25;;;;;;;21.79;59.86;100858.24;5142969;56;21193;-86
2021/09/03 12:32:05;;;;;;;8.68;5.87;;;;;;;21.89;60.81;100841.30;5143098;56;21117;-85
2021/09/03 12:37:11;;;;;;;12.95;6.03;;;;;;;22.02;59.79;100842.86;5142154;56;21157;-87
2021/09/03 12:42:18;;;;;;;8.03;5.80;;;;;;;21.99;58.94;100835.66;5143447;56;21193;-87
2021/09/03 12:47:24;;;;;;;10.15;5.97;;;;;;;22.19;60.63;100819.27;5143266;56;21115;-85
2021/09/03 12:52:31;;;;;;;17.05;6.67;;;;;;;22.36;60.02;100816.69;5143356;56;21146;-86
2021/09/03 12:57:38;;;;;;;7.33;5.75;;;;;;;22.45;58.69;100807.49;5136318;56;21533;-87
2021/09/03 13:02:44;;;;;;;10.85;6.05;;;;;;;22.51;58.63;100807.73;5123257;56;21169;-83
2021/09/03 13:07:52;;;;;;;10.30;5.58;;;;;;;22.53;58.15;100799.79;5123020;56;21170;-87
2021/09/03 13:12:58;;;;;;;8.60;6.00;;;;;;;22.62;58.71;100801.84;5121779;56;21103;-86
2021/09/03 13:18:05;;;;;;;5.87;5.22;;;;;;;22.77;59.30;100793.23;5122671;56;21165;-87
2021/09/03 13:23:11;;;;;;;7.70;6.25;;;;;;;22.88;57.45;100796.78;5123653;56;21226;-86
2021/09/03 13:28:18;;;;;;;10.35;6.72;;;;;;;22.95;57.82;100798.19;5122197;56;21176;-86
2021/09/03 13:33:24;;;;;;;9.38;5.25;;;;;;;22.98;57.50;100788.36;5122900;57;21199;-85
2021/09/03 13:38:29;;;;;;;7.40;5.35;;;;;;;23.07;55.98;100782.63;5122643;56;21589;-85
2021/09/03 13:43:35;;;;;;;7.67;5.75;;;;;;;23.10;57.06;100782.25;5122746;57;21142;-88
2021/09/03 13:48:43;;;;;;;10.13;5.67;;;;;;;23.15;56.92;100770.88;5121865;56;21193;-86
2021/09/03 13:53:49;;;;;;;7.08;5.08;;;;;;;23.34;56.17;100768.86;5122381;57;22146;-86
2021/09/03 13:58:55;;;;;;;9.65;5.40;;;;;;;23.39;55.87;100766.39;5136765;56;21655;-87
2021/09/03 14:04:00;;;;;;;7.72;4.95;;;;;;;23.55;57.27;100767.16;5156382;56;21184;-86
2021/09/03 14:09:07;;;;;;;8.58;5.15;;;;;;;23.71;53.63;100771.73;5155641;56;21159;-88
2021/09/03 14:14:13;;;;;;;7.58;5.35;;;;;;;23.87;53.92;100762.47;5156393;56;21475;-89
2021/09/03 14:19:19;;;;;;;7.67;5.83;;;;;;;23.95;53.43;100763.67;5157166;56;21552;-89
2021/09/03 14:24:25;;;;;;;7.70;4.97;;;;;;;23.99;53.25;100768.14;5156370;56;21778;-88
2021/09/03 14:29:31;;;;;;;7.42;5.83;;;;;;;24.08;52.57;100768.30;5156826;56;21167;-87
2021/09/03 14:34:36;;;;;;;7.70;5.75;;;;;;;24.06;52.58;100769.02;5156004;56;21593;-85
2021/09/03 14:39:42;;;;;;;7.83;5.85;;;;;;;24.14;54.25;100761.56;5156048;56;21207;-86
2021/09/03 14:44:47;;;;;;;6.40;5.58;;;;;;;24.21;53.95;100761.59;5155377;56;21170;-88
2021/09/03 14:49:53;;;;;;;8.13;5.53;;;;;;;24.29;52.60;100767.39;5155503;56;21699;-84
2021/09/03 14:54:59;;;;;;;6.65;5.55;;;;;;;24.17;51.15;100765.73;5155266;56;21088;-87
2021/09/03 15:00:06;;;;;;;10.05;5.58;;;;;;;24.18;52.22;100761.48;5148979;56;21175;-84
2021/09/03 15:05:12;;;;;;;7.92;5.67;;;;;;;24.20;51.99;100758.06;5143573;56;21211;-85
2021/09/03 15:10:18;;;;;;;4.92;4.42;;;;;;;24.24;51.03;100761.23;5143812;56;21523;-86
2021/09/03 15:15:24;;;;;;;8.15;5.60;;;;;;;24.20;50.69;100755.36;5143463;56;21148;-86
2021/09/03 15:20:30;;;;;;;9.78;5.95;;;;;;;24.15;51.24;100749.71;5038260;59;21223;-85
2021/09/03 15:25:36;;;;;;;8.80;5.47;;;;;;;24.16;49.96;100745.98;4954132;60;21186;-85
2021/09/03 15:30:42;;;;;;;6.70;5.35;;;;;;;24.10;49.92;100757.61;5023319;58;21859;-85
2021/09/03 15:35:48;;;;;;;9.80;5.65;;;;;;;24.09;51.32;100747.00;4970856;58;21181;-85
2021/09/03 15:40:54;;;;;;;12.68;6.42;;;;;;;24.11;52.07;100745.77;5038293;59;22105;-86
2021/09/03 15:46:00;;;;;;;9.90;6.05;;;;;;;24.14;52.46;100752.09;5022700;58;21175;-85
2021/09/03 15:51:06;;;;;;;8.75;7.20;;;;;;;24.05;50.67;100740.33;4972784;58;21682;-85
2021/09/03 15:56:13;;;;;;;11.60;7.87;;;;;;;23.91;51.29;100752.94;4972809;58;21107;-83
2021/09/03 16:01:18;;;;;;;9.63;6.05;;;;;;;23.85;51.60;100749.67;5041098;57;21187;-83
2021/09/03 16:06:24;;;;;;;7.55;6.08;;;;;;;23.78;50.61;100748.31;5141233;56;21582;-83
2021/09/03 16:11:30;;;;;;;17.20;8.43;;;;;;;23.70;50.96;100755.20;5042999;57;21667;-84
2021/09/03 16:16:37;;;;;;;9.75;7.20;;;;;;;23.56;51.67;100755.33;5141530;56;21102;-86
2021/09/03 16:21:44;;;;;;;12.53;7.70;;;;;;;23.50;52.37;100746.14;5141846;56;22259;-83
2021/09/03 16:26:50;;;;;;;11.95;7.17;;;;;;;23.44;52.94;100738.81;5139080;56;21229;-85
2021/09/03 16:31:55;;;;;;;12.75;7.33;;;;;;;23.34;52.38;100741.87;5140084;56;21237;-86
2021/09/03 16:37:01;;;;;;;15.20;9.05;;;;;;;23.15;52.70;100747.94;5133048;56;21679;-85
2021/09/03 16:42:07;;;;;;;16.97;9.30;;;;;;;23.07;54.13;100748.06;5091761;56;21166;-84
2021/09/03 16:47:15;;;;;;;13.13;9.85;;;;;;;23.08;55.01;100749.73;5134730;56;22237;-83
2021/09/03 16:52:20;;;;;;;13.50;8.65;;;;;;;23.04;55.68;100759.27;5136322;56;21145;-84
2021/09/03 16:57:30;;;;;;;11.83;8.80;;;;;;;22.95;55.87;100770.69;5139015;56;21639;-84
2021/09/03 17:02:36;;;;;;;18.05;10.58;;;;;;;22.74;55.61;100767.98;5040401;57;21160;-82
2021/09/03 17:07:42;;;;;;;17.65;9.73;;;;;;;22.51;56.26;100770.84;5058472;58;21551;-83
2021/09/03 17:12:48;;;;;;;18.05;9.00;;;;;;;22.27;56.41;100780.11;5056486;58;21112;-83
2021/09/03 17:17:54;;;;;;;13.65;8.23;;;;;;;22.02;57.03;100783.60;4960711;59;21210;-83
2021/09/03 17:22:59;;;;;;;15.93;10.05;;;;;;;21.83;57.61;100788.70;4918815;59;22065;-83
2021/09/03 17:28:06;;;;;;;21.25;12.18;;;;;;;21.57;57.78;100795.34;4960428;59;21621;-83
2021/09/03 17:33:11;;;;;;;19.98;10.23;;;;;;;21.25;58.46;100797.00;4955372;59;21166;-82
2021/09/03 17:38:17;;;;;;;16.23;10.18;;;;;;;21.01;59.05;100803.39;4961903;58;21532;-83
2021/09/03 17:43:23;;;;;;;23.75;10.58;;;;;;;20.79;59.24;100805.05;4961304;59;21715;-85
2021/09/03 17:48:29;;;;;;;19.12;10.08;;;;;;;20.69;59.87;100814.70;4962908;59;22259;-84
2021/09/03 17:53:35;;;;;;;18.37;11.10;;;;;;;20.62;60.27;100813.72;4962397;58;21161;-83
2021/09/03 17:58:41;;;;;;;21.25;12.13;;;;;;;20.55;60.37;100823.52;4962956;58;21497;-85
2021/09/03 18:03:47;;;;;;;19.62;10.10;;;;;;;20.43;60.65;100827.62;4937656;59;21608;-82
2021/09/03 18:08:53;;;;;;;18.57;10.90;;;;;;;20.30;60.77;100849.64;5022250;57;21657;-83
2021/09/03 18:13:59;;;;;;;15.93;10.75;;;;;;;20.15;61.16;100850.53;5022544;57;21215;-83
2021/09/03 18:19:05;;;;;;;18.60;11.03;;;;;;;19.93;61.39;100854.78;5018280;58;21122;-84
2021/09/03 18:24:11;;;;;;;25.57;14.05;;;;;;;19.78;61.75;100857.83;4940585;59;21187;-84
2021/09/03 18:29:17;;;;;;;24.18;13.25;;;;;;;19.57;61.93;100851.14;5020264;58;21455;-80
2021/09/03 18:34:22;;;;;;;20.97;11.85;;;;;;;19.50;62.22;100860.05;5007870;58;21202;-83
2021/09/03 18:39:29;;;;;;;18.82;12.53;;;;;;;19.48;62.50;100862.86;5011984;58;21167;-80
2021/09/03 18:44:35;;;;;;;20.97;12.68;;;;;;;19.55;62.67;100867.09;5012777;58;21160;-81
2021/09/03 18:49:41;;;;;;;19.20;11.70;;;;;;;19.61;62.62;100869.09;5012318;58;21204;-80
2021/09/03 18:54:47;;;;;;;20.10;12.45;;;;;;;19.60;62.68;100862.88;5012437;59;21771;-81
2021/09/03 18:59:53;;;;;;;22.80;13.60;;;;;;;19.56;62.80;100862.03;5011305;58;21108;-81
2021/09/03 19:04:59;;;;;;;25.12;14.28;;;;;;;19.52;63.08;100861.56;5017422;58;21099;-81
2021/09/03 19:10:11;;;;;;;27.27;15.78;;;;;;;19.40;62.88;100858.82;5130339;56;21146;-80
2021/09/03 19:15:19;;;;;;;26.97;15.50;;;;;;;19.37;63.39;100861.03;5130233;57;21223;-82
2021/09/03 19:20:25;;;;;;;34.13;17.25;;;;;;;19.31;63.48;100865.20;5130316;56;21171;-81
2021/09/03 19:25:31;;;;;;;36.13;16.90;;;;;;;19.20;63.33;100872.24;5130498;56;21150;-83
2021/09/03 19:30:36;;;;;;;30.55;14.87;;;;;;;19.07;63.58;100875.92;5130747;56;21110;-82
2021/09/03 19:35:42;;;;;;;39.50;20.92;;;;;;;18.95;63.50;100878.05;5126393;56;21099;-82
2021/09/03 19:40:48;;;;;;;37.85;19.52;;;;;;;18.71;63.48;100885.54;5128556;57;21150;-83
2021/09/03 19:45:55;;;;;;;50.75;23.60;;;;;;;18.48;63.78;100891.13;5128560;56;21146;-83
2021/09/03 19:51:00;;;;;;;36.30;21.75;;;;;;;18.37;64.51;100890.05;5126708;56;21950;-83
2021/09/03 19:56:06;;;;;;;35.17;20.30;;;;;;;18.39;65.23;100892.07;5132095;56;21162;-83
2021/09/03 20:01:12;;;;;;;32.10;17.65;;;;;;;18.39;65.10;100896.93;5092148;57;1137652;-84
2021/09/03 20:06:18;;;;;;;29.82;17.45;;;;;;;18.33;65.06;100892.23;5117065;56;1143986;-83
2021/09/03 20:11:24;;;;;;;34.35;20.12;;;;;;;18.21;65.02;100892.98;5147278;56;21477;-83
2021/09/03 20:16:32;;;;;;;38.48;21.77;;;;;;;18.11;65.69;100884.24;5153135;56;21149;-84
2021/09/03 20:21:38;;;;;;;41.60;22.37;;;;;;;18.13;65.95;100892.11;5152002;56;21165;-84
2021/09/03 20:26:44;;;;;;;41.98;21.07;;;;;;;18.03;65.94;100891.36;5152309;56;21159;-83
2021/09/03 20:31:51;;;;;;;49.53;24.40;;;;;;;18.02;66.00;100887.87;5145968;56;21185;-84
2021/09/03 20:36:56;;;;;;;62.90;29.50;;;;;;;17.57;64.88;100883.98;5144030;56;21091;-83
2021/09/03 20:42:03;;;;;;;47.74;26.92;;;;;;;17.36;65.97;100893.70;4667435;56;1138987;-83
2021/09/03 20:47:09;;;;;;;56.68;29.80;;;;;;;17.36;66.85;100900.38;3994680;56;1152326;-83
2021/09/03 20:52:15;;;;;;;57.45;28.57;;;;;;;17.44;66.83;100893.75;3996786;56;1143126;-84
2021/09/03 20:57:22;;;;;;;43.65;23.50;;;;;;;17.31;66.08;100905.83;3996478;56;1143083;-83
2021/09/03 21:02:28;;;;;;;48.80;25.32;;;;;;;17.22;66.26;100911.61;4137340;56;1258264;-84
2021/09/03 21:07:34;;;;;;;45.28;23.77;;;;;;;16.99;66.70;100911.69;4098300;56;1149136;-83
2021/09/03 21:12:40;;;;;;;45.93;25.57;;;;;;;16.94;67.34;100914.84;4288463;55;1143213;-87
2021/09/03 21:17:45;;;;;;;47.77;24.20;;;;;;;16.96;67.62;100920.84;5275533;55;21144;-83
2021/09/03 21:22:51;;;;;;;55.70;25.30;;;;;;;16.94;67.61;100923.34;5274071;55;21207;-82
2021/09/03 21:27:56;;;;;;;45.17;23.47;;;;;;;16.91;67.40;100919.14;5275074;55;21221;-83
2021/09/03 21:33:02;;;;;;;52.50;22.23;;;;;;;16.91;67.44;100920.97;5275513;55;21136;-84
2021/09/03 21:38:08;;;;;;;46.97;24.17;;;;;;;16.86;67.30;100916.06;5274845;55;21468;-84
2021/09/03 21:43:13;;;;;;;54.60;22.17;;;;;;;16.71;67.07;100913.05;5273534;55;21198;-83
2021/09/03 21:48:20;;;;;;;42.43;21.33;;;;;;;16.62;67.15;100911.75;5274350;55;21499;-83
2021/09/03 21:53:25;;;;;;;35.97;22.30;;;;;;;16.41;67.15;100918.16;5274372;55;21097;-83
2021/09/03 21:58:31;;;;;;;37.83;21.80;;;;;;;16.26;67.11;100923.62;5274444;55;22144;-83
2021/09/03 22:03:37;;;;;;;47.23;22.90;;;;;;;15.98;67.76;100922.73;5274211;55;21503;-83
2021/09/03 22:08:43;;;;;;;36.07;21.30;;;;;;;15.91;68.39;100928.27;5273923;55;21558;-83
2021/09/03 22:13:49;;;;;;;31.97;18.93;;;;;;;15.97;68.80;100925.53;5250283;56;21486;-84
2021/09/03 22:18:55;;;;;;;33.60;21.30;;;;;;;15.99;68.72;100928.91;5251266;56;21168;-83
2021/09/03 22:24:01;;;;;;;32.53;21.43;;;;;;;15.89;68.33;100920.90;5252249;56;21110;-83
2021/09/03 22:29:06;;;;;;;35.80;20.10;;;;;;;15.71;68.43;100922.15;5038501;57;21162;-83
2021/09/03 22:34:12;;;;;;;29.10;17.97;;;;;;;15.74;68.87;100915.66;5252512;56;21240;-84
2021/09/03 22:39:18;;;;;;;36.57;21.27;;;;;;;15.79;68.94;100925.42;5251996;56;21183;-84
2021/09/03 22:44:23;;;;;;;41.53;21.13;;;;;;;15.70;68.68;100918.28;5251057;55;21212;-83
2021/09/03 22:49:29;;;;;;;42.27;21.47;;;;;;;15.67;69.12;100919.41;5251632;56;21165;-84
2021/09/03 22:54:35;;;;;;;36.23;21.07;;;;;;;15.66;69.46;100920.39;5252379;56;21503;-84
2021/09/03 22:59:41;;;;;;;40.73;18.90;;;;;;;15.58;68.89;100919.42;5251499;56;21196;-83
2021/09/03 23:04:47;;;;;;;36.10;20.23;;;;;;;15.39;68.72;100926.90;5251428;56;21160;-83
2021/09/03 23:09:53;;;;;;;43.10;23.63;;;;;;;15.25;68.74;100924.65;5255343;55;21218;-83
2021/09/03 23:14:58;;;;;;;37.00;19.90;;;;;;;14.98;68.79;100925.29;5274029;55;21506;-84
2021/09/03 23:20:05;;;;;;;34.73;20.70;;;;;;;15.03;69.65;100927.91;5275316;55;21186;-84
2021/09/03 23:25:12;;;;;;;38.43;22.10;;;;;;;15.07;69.95;100933.80;5274923;55;21160;-83
2021/09/03 23:30:17;;;;;;;29.93;19.03;;;;;;;15.02;70.00;100928.04;5276464;55;21172;-84